createdAt,value
2018-07-11T00:01:50.520Z,74.37
2018-07-11T00:04:19.670Z,74.64
2018-07-11T00:06:48.822Z,74.14
2018-07-11T00:09:18.037Z,75.06
2018-07-11T00:11:47.153Z,73.10
2018-07-11T00:14:16.293Z,74.49
2018-07-11T00:16:50.654Z,73.46
2018-07-11T00:19:19.838Z,73.75
2018-07-11T00:21:49.006Z,73.50
2018-07-11T00:24:18.181Z,76.18
2018-07-11T00:26:47.313Z,75.58
2018-07-11T00:29:16.565Z,75.02
2018-07-11T00:31:45.697Z,74.75
2018-07-11T00:34:14.842Z,73.86
2018-07-11T00:36:43.987Z,73.69
2018-07-11T00:39:13.225Z,72.98
2018-07-11T00:41:42.389Z,73.17
2018-07-11T00:44:11.552Z,73.31
2018-07-11T00:46:40.711Z,74.89
2018-07-11T00:49:09.865Z,73.87
2018-07-11T00:51:39.037Z,73.71
2018-07-11T00:54:08.206Z,73.03
2018-07-11T00:56:37.357Z,73.29
2018-07-11T00:59:11.965Z,73.65
2018-07-11T01:01:41.841Z,72.60
2018-07-11T01:04:10.981Z,72.80
2018-07-11T01:06:40.136Z,73.13
2018-07-11T01:09:09.281Z,72.84
2018-07-11T01:11:38.440Z,72.99
2018-07-11T01:14:07.557Z,72.32
2018-07-11T01:16:36.717Z,72.24
2018-07-11T01:19:08.467Z,72.52
2018-07-11T01:21:37.992Z,72.90
2018-07-11T01:24:07.185Z,72.85
2018-07-11T01:26:38.662Z,74.57
2018-07-11T01:29:08.241Z,72.21
2018-07-11T01:31:37.385Z,72.51
2018-07-11T01:34:06.493Z,72.30
2018-07-11T01:36:35.633Z,73.30
2018-07-11T01:39:04.884Z,73.23
2018-07-11T01:41:34.069Z,73.14
2018-07-11T01:44:03.213Z,74.20
2018-07-11T01:46:43.426Z,74.00
2018-07-11T01:49:12.562Z,72.60
2018-07-11T01:53:49.257Z,73.51
2018-07-11T01:56:18.401Z,72.95
2018-07-11T01:58:47.945Z,73.13
2018-07-11T02:01:17.081Z,73.19
2018-07-11T02:03:46.209Z,74.32
2018-07-11T02:06:15.367Z,72.93
2018-07-11T02:08:44.538Z,71.96
2018-07-11T02:11:13.693Z,71.75
2018-07-11T02:13:42.845Z,72.65
2018-07-11T02:16:12.005Z,72.09
2018-07-11T02:18:41.150Z,73.25
2018-07-11T02:21:10.301Z,72.71
2018-07-11T02:23:39.449Z,73.60
2018-07-11T02:26:08.674Z,72.45
2018-07-11T02:28:38.203Z,73.80
2018-07-11T02:31:07.349Z,73.61
2018-07-11T02:33:36.490Z,73.15
2018-07-11T02:36:05.649Z,73.10
2018-07-11T02:38:34.769Z,72.78
2018-07-11T02:41:03.926Z,71.63
2018-07-11T02:43:33.073Z,72.12
2018-07-11T02:46:02.213Z,74.43
2018-07-11T02:48:31.345Z,74.17
2018-07-11T02:51:00.509Z,74.88
2018-07-11T02:53:29.679Z,72.02
2018-07-11T02:55:58.789Z,73.53
2018-07-11T02:58:27.901Z,73.67
2018-07-11T03:00:57.043Z,72.65
2018-07-11T03:03:26.199Z,71.83
2018-07-11T03:05:55.314Z,72.88
2018-07-11T03:08:34.948Z,71.91
2018-07-11T03:11:04.997Z,73.28
2018-07-11T03:13:34.255Z,72.54
2018-07-11T03:16:03.417Z,72.09
2018-07-11T03:18:32.538Z,73.50
2018-07-11T03:21:01.701Z,72.99
2018-07-11T03:23:30.823Z,72.75
2018-07-11T03:25:59.981Z,73.35
2018-07-11T03:28:29.097Z,72.40
2018-07-11T03:30:58.210Z,72.94
2018-07-11T03:33:27.321Z,72.91
2018-07-11T03:35:56.494Z,73.17
2018-07-11T03:38:25.601Z,72.82
2018-07-11T03:40:54.721Z,72.51
2018-07-11T03:43:23.844Z,72.18
2018-07-11T03:45:52.973Z,71.67
2018-07-11T03:48:22.110Z,72.09
2018-07-11T03:50:51.237Z,71.66
2018-07-11T03:53:20.381Z,71.39
2018-07-11T03:55:49.506Z,71.41
2018-07-11T03:58:18.605Z,70.38
2018-07-11T04:00:47.712Z,71.34
2018-07-11T04:03:16.817Z,70.18
2018-07-11T04:05:45.918Z,70.35
2018-07-11T04:08:15.057Z,71.27
2018-07-11T04:10:44.182Z,71.34
2018-07-11T04:13:16.866Z,70.94
2018-07-11T04:15:46.117Z,71.41
2018-07-11T04:18:25.918Z,71.72
2018-07-11T04:20:55.069Z,71.21
2018-07-11T04:23:24.336Z,70.95
2018-07-11T04:25:53.917Z,71.70
2018-07-11T04:28:24.030Z,71.02
2018-07-11T04:30:53.180Z,70.54
2018-07-11T04:33:22.429Z,70.63
2018-07-11T04:35:52.445Z,70.81
2018-07-11T04:38:21.665Z,71.18
2018-07-11T04:40:51.230Z,70.93
2018-07-11T04:43:20.529Z,71.52
2018-07-11T04:45:49.757Z,70.22
2018-07-11T04:48:19.253Z,70.72
2018-07-11T04:51:13.228Z,70.17
2018-07-11T04:53:42.553Z,70.53
2018-07-11T04:56:11.729Z,72.21
2018-07-11T04:58:40.830Z,71.93
2018-07-11T05:01:09.990Z,73.45
2018-07-11T05:03:39.145Z,72.15
2018-07-11T05:06:08.285Z,71.02
2018-07-11T05:08:37.381Z,69.46
2018-07-11T05:11:06.702Z,68.41
2018-07-11T05:13:35.753Z,70.35
2018-07-11T05:16:04.948Z,69.26
2018-07-11T05:18:36.058Z,68.44
2018-07-11T05:21:05.170Z,66.88
2018-07-11T05:23:34.265Z,68.18
2018-07-11T05:26:03.365Z,66.80
2018-07-11T05:28:32.454Z,68.89
2018-07-11T05:31:01.590Z,68.44
2018-07-11T05:33:30.693Z,66.13
2018-07-11T05:35:59.801Z,66.34
2018-07-11T05:38:28.901Z,67.08
2018-07-11T05:40:58.038Z,69.60
2018-07-11T05:43:27.175Z,70.54
2018-07-11T05:45:56.299Z,72.40
2018-07-11T05:48:25.613Z,71.33
2018-07-11T05:50:55.569Z,73.70
2018-07-11T05:53:24.713Z,71.95
2018-07-11T05:55:53.854Z,71.74
2018-07-11T05:58:22.965Z,73.43
2018-07-11T06:00:52.097Z,72.01
2018-07-11T06:03:28.318Z,73.26
2018-07-11T06:05:59.684Z,75.46
2018-07-11T06:08:28.810Z,77.79
2018-07-11T06:10:57.942Z,78.00
2018-07-11T06:13:27.204Z,77.88
2018-07-11T06:15:56.308Z,77.48
2018-07-11T06:18:25.870Z,77.45
2018-07-11T06:20:54.977Z,78.66
2018-07-11T06:23:24.097Z,78.06
2018-07-11T06:25:56.846Z,79.30
2018-07-11T06:28:25.945Z,79.95
2018-07-11T06:30:55.075Z,78.66
2018-07-11T06:33:24.319Z,78.53
2018-07-11T06:35:53.405Z,78.52
2018-07-11T06:38:22.829Z,77.90
2018-07-11T06:40:52.028Z,77.47
2018-07-11T06:43:21.117Z,77.19
2018-07-11T06:45:50.297Z,77.54
2018-07-11T06:48:19.393Z,77.34
2018-07-11T06:50:48.480Z,78.72
2018-07-11T06:53:17.725Z,77.77
2018-07-11T06:55:46.833Z,77.25
2018-07-11T06:58:15.944Z,78.05
2018-07-11T07:00:45.342Z,78.59
2018-07-11T07:03:14.489Z,77.82
2018-07-11T07:05:44.050Z,77.70
2018-07-11T07:08:13.176Z,76.52
2018-07-11T07:10:42.465Z,77.01
2018-07-11T07:13:11.576Z,76.72
2018-07-11T07:15:40.674Z,74.78
2018-07-11T07:18:09.813Z,75.36
2018-07-11T07:20:38.957Z,73.96
2018-07-11T07:23:08.117Z,72.79
2018-07-11T07:25:37.235Z,73.29
2018-07-11T07:28:06.358Z,73.09
2018-07-11T07:30:35.469Z,72.43
2018-07-11T07:33:04.623Z,73.67
2018-07-11T07:35:33.738Z,74.33
2018-07-11T07:38:02.846Z,72.24
2018-07-11T07:40:31.930Z,71.38
2018-07-11T07:43:01.094Z,71.51
2018-07-11T07:45:30.270Z,72.29
2018-07-11T07:48:00.439Z,73.70
2018-07-11T07:50:29.593Z,75.01
2018-07-11T07:52:58.800Z,70.95
2018-07-11T07:55:27.905Z,71.55
2018-07-11T07:57:57.049Z,70.91
2018-07-11T08:00:26.158Z,70.49
2018-07-11T08:02:55.322Z,71.00
2018-07-11T08:05:24.497Z,71.06
2018-07-11T08:07:53.656Z,70.68
2018-07-11T08:10:22.811Z,70.90
2018-07-11T08:12:51.933Z,71.32
2018-07-11T08:15:21.041Z,69.19
2018-07-11T08:17:50.165Z,66.56
2018-07-11T08:20:19.281Z,67.47
2018-07-11T08:23:25.959Z,68.99
2018-07-11T08:26:07.021Z,68.27
2018-07-11T08:30:51.837Z,65.95
2018-07-11T08:34:29.946Z,63.28
2018-07-11T08:37:29.485Z,62.28
2018-07-11T08:40:06.435Z,59.45
2018-07-11T08:43:31.547Z,62.07
2018-07-11T08:48:14.409Z,61.60
2018-07-11T08:51:01.041Z,57.83
2018-07-11T08:53:47.236Z,57.85
2018-07-11T08:58:31.280Z,56.22
2018-07-11T09:01:16.765Z,56.59
2018-07-11T09:04:12.162Z,57.15
2018-07-11T09:09:07.180Z,55.25
2018-07-11T09:13:50.014Z,54.86
2018-07-11T09:16:33.213Z,51.83
2018-07-11T09:19:13.570Z,52.71
2018-07-11T09:22:17.618Z,53.44
2018-07-11T09:24:47.876Z,51.44
2018-07-11T09:27:16.993Z,54.74
2018-07-11T09:29:46.816Z,54.14
2018-07-11T09:32:16.205Z,52.15
2018-07-11T09:34:45.933Z,52.48
2018-07-11T09:37:15.061Z,51.36
2018-07-11T09:39:44.469Z,51.26
2018-07-11T09:42:13.646Z,51.23
2018-07-11T09:44:42.796Z,51.71
2018-07-11T09:47:17.174Z,52.75
2018-07-11T09:49:46.359Z,51.49
2018-07-11T09:52:15.492Z,50.94
2018-07-11T09:54:44.657Z,49.67
2018-07-11T09:57:13.830Z,48.32
2018-07-11T09:59:42.977Z,49.98
2018-07-11T10:02:12.152Z,52.09
2018-07-11T10:04:41.577Z,49.96
2018-07-11T10:07:11.197Z,51.81
2018-07-11T10:09:40.469Z,51.29
2018-07-11T10:12:09.619Z,53.67
2018-07-11T10:14:38.716Z,54.22
2018-07-11T10:17:07.899Z,52.25
2018-07-11T10:19:37.061Z,53.61
2018-07-11T10:22:06.297Z,51.49
2018-07-11T10:24:35.419Z,52.95
2018-07-11T10:27:04.677Z,53.19
2018-07-11T10:29:33.797Z,52.33
2018-07-11T10:32:02.989Z,52.71
2018-07-11T10:34:32.107Z,51.64
2018-07-11T10:37:01.238Z,51.77
2018-07-11T10:39:30.438Z,50.11
2018-07-11T10:41:59.582Z,51.85
2018-07-11T10:44:28.695Z,50.99
2018-07-11T10:47:01.977Z,51.62
2018-07-11T10:49:31.084Z,52.40
2018-07-11T10:52:00.230Z,49.77
2018-07-11T10:54:29.389Z,48.41
2018-07-11T10:56:58.575Z,48.68
2018-07-11T10:59:27.914Z,49.64
2018-07-11T11:01:57.038Z,51.17
2018-07-11T11:04:26.174Z,51.20
2018-07-11T11:06:55.985Z,50.41
2018-07-11T11:09:25.214Z,49.06
2018-07-11T11:11:54.338Z,48.79
2018-07-11T11:14:23.438Z,48.42
2018-07-11T11:16:52.578Z,47.23
2018-07-11T11:19:21.765Z,48.66
2018-07-11T11:21:50.920Z,48.24
2018-07-11T11:24:20.046Z,49.15
2018-07-11T11:26:49.142Z,47.76
2018-07-11T11:29:18.293Z,46.65
2018-07-11T11:31:47.441Z,48.02
2018-07-11T11:34:16.564Z,46.70
2018-07-11T11:36:45.692Z,46.00
2018-07-11T11:39:14.831Z,47.10
2018-07-11T11:41:44.110Z,45.55
2018-07-11T11:44:13.150Z,47.48
2018-07-11T11:46:42.329Z,46.74
2018-07-11T11:49:11.489Z,43.58
2018-07-11T11:51:40.653Z,44.52
2018-07-11T11:54:09.822Z,45.80
2018-07-11T11:56:38.953Z,45.14
2018-07-11T11:59:08.110Z,47.10
2018-07-11T12:01:37.266Z,44.69
2018-07-11T12:04:06.353Z,45.03
2018-07-11T12:06:35.520Z,44.41
2018-07-11T12:09:04.709Z,44.12
2018-07-11T12:11:33.857Z,43.52
2018-07-11T12:14:02.969Z,45.61
2018-07-11T12:16:32.073Z,45.95
2018-07-11T12:19:01.213Z,45.26
2018-07-11T12:21:30.423Z,46.56
2018-07-11T12:23:59.561Z,45.90
2018-07-11T12:26:28.729Z,45.56
2018-07-11T12:28:57.860Z,46.35
2018-07-11T12:31:26.968Z,44.75
2018-07-11T12:33:56.118Z,44.95
2018-07-11T12:36:25.221Z,44.97
2018-07-11T12:38:55.522Z,44.61
2018-07-11T12:41:24.925Z,43.32
2018-07-11T12:43:54.097Z,43.48
2018-07-11T12:46:23.281Z,41.89
2018-07-11T12:48:58.273Z,43.82
2018-07-11T12:51:27.443Z,43.46
2018-07-11T12:53:56.601Z,43.97
2018-07-11T12:56:26.338Z,43.49
2018-07-11T12:58:56.061Z,43.80
2018-07-11T13:01:25.241Z,44.34
2018-07-11T13:03:55.630Z,42.74
2018-07-11T13:06:26.247Z,43.95
2018-07-11T13:08:55.413Z,41.59
2018-07-11T13:11:24.553Z,41.97
2018-07-11T13:13:53.787Z,41.61
2018-07-11T13:16:22.944Z,41.51
2018-07-11T13:18:52.034Z,42.43
2018-07-11T13:21:21.169Z,40.96
2018-07-11T13:23:51.969Z,41.28
2018-07-11T13:26:21.143Z,41.10
2018-07-11T13:28:50.341Z,41.02
2018-07-11T13:31:19.497Z,41.34
2018-07-11T13:33:48.649Z,41.05
2018-07-11T13:36:17.769Z,38.33
2018-07-11T13:38:46.929Z,39.48
2018-07-11T13:41:16.077Z,38.57
2018-07-11T13:43:45.218Z,38.75
2018-07-11T13:46:14.404Z,39.52
2018-07-11T13:48:43.515Z,39.01
2018-07-11T13:51:12.645Z,39.34
2018-07-11T13:53:42.166Z,39.04
2018-07-11T13:56:11.297Z,40.63
2018-07-11T13:58:42.027Z,39.00
2018-07-11T14:01:11.173Z,40.19
2018-07-11T14:06:37.429Z,39.75
2018-07-11T14:09:06.546Z,38.46
2018-07-11T14:11:35.657Z,38.79
2018-07-11T14:14:05.066Z,39.70
2018-07-11T14:16:35.111Z,39.29
2018-07-11T14:19:04.274Z,40.52
2018-07-11T14:21:33.365Z,39.65
2018-07-11T14:24:02.517Z,40.26
2018-07-11T14:26:33.373Z,41.38
2018-07-11T14:29:03.339Z,39.12
2018-07-11T14:31:36.596Z,39.60
2018-07-11T14:34:07.853Z,40.56
2018-07-11T14:36:37.129Z,40.61
2018-07-11T14:39:07.921Z,41.24
2018-07-11T14:41:37.115Z,41.48
2018-07-11T14:44:06.242Z,42.10
2018-07-11T14:46:35.561Z,42.41
2018-07-11T14:49:05.353Z,41.19
2018-07-11T14:51:34.708Z,41.49
2018-07-11T14:54:03.661Z,42.36
2018-07-11T14:56:32.809Z,41.94
2018-07-11T14:59:01.950Z,42.43
2018-07-11T15:01:31.116Z,42.77
2018-07-11T15:04:00.257Z,43.16
2018-07-11T15:06:29.406Z,43.85
2018-07-11T15:08:58.606Z,43.18
2018-07-11T15:11:27.712Z,45.06
2018-07-11T15:13:56.930Z,44.00
2018-07-11T15:16:26.113Z,44.63
2018-07-11T15:18:55.304Z,43.89
2018-07-11T15:21:24.450Z,44.80
2018-07-11T15:23:53.650Z,44.21
2018-07-11T15:26:22.781Z,45.08
2018-07-11T15:28:52.002Z,45.21
2018-07-11T15:31:21.249Z,46.23
2018-07-11T15:33:51.258Z,46.14
2018-07-11T15:36:20.408Z,46.42
2018-07-11T15:38:49.673Z,46.98
2018-07-11T15:41:18.821Z,48.59
2018-07-11T15:43:48.805Z,48.30
2018-07-11T15:46:17.977Z,49.16
2018-07-11T15:48:47.250Z,48.43
2018-07-11T15:51:16.433Z,48.03
2018-07-11T15:53:45.569Z,49.06
2018-07-11T15:56:14.726Z,49.51
2018-07-11T15:58:46.335Z,49.10
2018-07-11T16:01:15.505Z,49.06
2018-07-11T16:03:46.664Z,48.66
2018-07-11T16:06:16.243Z,49.73
2018-07-11T16:08:49.214Z,53.16
2018-07-11T16:11:18.377Z,54.99
2018-07-11T16:13:47.468Z,56.32
2018-07-11T16:16:16.930Z,58.16
2018-07-11T16:18:46.113Z,60.76
2018-07-11T16:21:15.253Z,62.62
2018-07-11T16:23:44.705Z,64.17
2018-07-11T16:26:13.982Z,65.53
2018-07-11T16:28:43.117Z,64.83
2018-07-11T16:31:12.333Z,65.75
2018-07-11T16:33:41.450Z,66.86
2018-07-11T16:36:11.069Z,67.87
2018-07-11T16:38:40.294Z,69.04
2018-07-11T16:41:09.413Z,68.93
2018-07-11T16:43:39.647Z,68.46
2018-07-11T16:46:09.082Z,69.79
2018-07-11T16:48:38.312Z,69.90
2018-07-11T16:51:07.465Z,71.36
2018-07-11T16:53:36.930Z,69.90
2018-07-11T16:56:06.094Z,70.20
2018-07-11T16:58:38.713Z,70.21
2018-07-11T17:01:07.875Z,68.86
2018-07-11T17:03:40.469Z,68.09
2018-07-11T17:06:11.576Z,68.61
2018-07-11T17:08:49.862Z,69.15
2018-07-11T17:11:22.082Z,70.34
2018-07-11T17:13:54.432Z,70.76
2018-07-11T17:16:46.768Z,70.50
2018-07-11T17:19:22.537Z,68.42
2018-07-11T17:21:51.739Z,68.25
2018-07-11T17:24:21.989Z,68.50
2018-07-11T17:26:54.977Z,69.41
2018-07-11T17:29:27.568Z,68.59
2018-07-11T17:32:02.054Z,68.94
2018-07-11T17:34:31.245Z,69.27
2018-07-11T17:37:02.170Z,70.50
2018-07-11T17:39:38.162Z,69.49
2018-07-11T17:42:07.672Z,71.44
2018-07-11T17:44:37.281Z,70.37
2018-07-11T17:47:06.485Z,71.81
2018-07-11T17:49:41.721Z,72.71
2018-07-11T17:52:12.117Z,71.42
2018-07-11T17:54:49.425Z,73.74
2018-07-11T17:57:24.954Z,74.59
2018-07-11T18:00:04.769Z,74.20
2018-07-11T18:02:39.843Z,73.14
2018-07-11T18:05:15.726Z,74.45
2018-07-11T18:07:47.388Z,75.09
2018-07-11T18:10:30.675Z,74.01
2018-07-11T18:13:13.457Z,75.06
2018-07-11T18:15:52.181Z,75.55
2018-07-11T18:18:31.550Z,74.07
2018-07-11T18:23:18.545Z,78.29
2018-07-11T18:28:04.939Z,77.70
2018-07-11T18:30:45.337Z,77.85
2018-07-11T18:34:24.085Z,77.31
2018-07-11T18:37:07.769Z,79.66
2018-07-11T18:39:48.579Z,78.58
2018-07-11T18:42:36.972Z,79.72
2018-07-11T18:45:24.723Z,79.72
2018-07-11T18:48:06.094Z,80.95
2018-07-11T18:53:05.105Z,80.66
2018-07-11T18:55:44.849Z,80.58
2018-07-11T18:58:22.700Z,82.65
2018-07-11T19:02:05.225Z,82.90
2018-07-11T19:04:56.878Z,83.35
2018-07-11T19:07:34.713Z,81.60
2018-07-11T19:10:06.367Z,81.15
2018-07-11T19:12:50.843Z,81.56
2018-07-11T19:15:30.458Z,80.45
2018-07-11T19:18:04.032Z,81.48
2018-07-11T19:20:39.044Z,82.82
2018-07-11T19:23:15.817Z,82.84
2018-07-11T19:25:54.874Z,81.57
2018-07-11T19:29:03.907Z,81.32
2018-07-11T19:31:49.530Z,82.57
2018-07-11T19:34:27.945Z,81.85
2018-07-11T19:37:00.324Z,80.94
2018-07-11T19:39:36.238Z,80.93
2018-07-11T19:42:16.763Z,80.91
2018-07-11T19:45:24.935Z,80.01
2018-07-11T19:48:10.185Z,80.45
2018-07-11T19:51:52.796Z,80.41
2018-07-11T19:54:48.725Z,80.52
2018-07-11T19:57:18.025Z,81.99
2018-07-11T19:59:47.194Z,80.23
2018-07-11T20:02:16.618Z,81.79
2018-07-11T20:04:45.801Z,80.83
2018-07-11T20:07:15.518Z,80.46
2018-07-11T20:09:44.637Z,80.55
2018-07-11T20:12:13.829Z,80.08
2018-07-11T20:14:43.129Z,80.69
2018-07-11T20:17:12.499Z,80.25
2018-07-11T20:19:41.701Z,82.59
2018-07-11T20:22:10.916Z,81.80
2018-07-11T20:24:40.919Z,81.96
2018-07-11T20:27:10.085Z,80.94
2018-07-11T20:29:39.316Z,80.63
2018-07-11T20:32:08.521Z,81.56
2018-07-11T20:34:37.637Z,81.66
2018-07-11T20:37:06.847Z,80.96
2018-07-11T20:39:37.038Z,82.01
2018-07-11T20:42:06.494Z,79.50
2018-07-11T20:44:35.674Z,82.23
2018-07-11T20:47:04.989Z,80.78
2018-07-11T20:49:35.217Z,80.02
2018-07-11T20:52:05.778Z,79.80
2018-07-11T20:54:35.549Z,79.02
2018-07-11T20:57:05.173Z,78.91
2018-07-11T20:59:45.692Z,79.68
2018-07-11T21:02:28.642Z,79.66
2018-07-11T21:07:14.742Z,77.44
2018-07-11T21:09:54.270Z,79.61
2018-07-11T21:12:39.785Z,80.07
2018-07-11T21:15:51.158Z,78.99
2018-07-11T21:18:59.849Z,80.18
2018-07-11T21:21:29.127Z,79.37
2018-07-11T21:23:58.245Z,79.62
2018-07-11T21:26:27.365Z,79.36
2018-07-11T21:28:57.548Z,78.96
2018-07-11T21:31:26.762Z,79.73
2018-07-11T21:33:59.277Z,81.26
2018-07-11T21:36:28.400Z,79.55
2018-07-11T21:38:57.547Z,79.88
2018-07-11T21:41:26.668Z,79.03
2018-07-11T21:43:55.878Z,81.13
2018-07-11T21:46:25.006Z,81.10
2018-07-11T21:48:54.136Z,80.82
2018-07-11T21:51:23.272Z,80.85
2018-07-11T21:53:52.393Z,80.48
2018-07-11T21:56:21.536Z,80.84
2018-07-11T21:58:50.725Z,79.27
2018-07-11T22:01:20.375Z,80.85
2018-07-11T22:03:49.488Z,80.16
2018-07-11T22:06:18.609Z,79.08
2018-07-11T22:08:47.734Z,78.61
2018-07-11T22:11:16.890Z,77.92
2018-07-11T22:13:46.010Z,78.51
2018-07-11T22:16:15.145Z,78.65
2018-07-11T22:18:45.474Z,81.00
2018-07-11T22:21:14.595Z,81.09
2018-07-11T22:23:42.338Z,81.32
2018-07-11T22:26:10.077Z,79.30
2018-07-11T22:28:37.804Z,82.01
2018-07-11T22:31:05.529Z,83.61
2018-07-11T22:33:33.254Z,85.68
2018-07-11T22:36:01.034Z,84.47
2018-07-11T22:38:28.758Z,84.31
2018-07-11T22:40:56.518Z,83.43
2018-07-11T22:43:24.225Z,85.25
2018-07-11T22:45:51.949Z,84.76
2018-07-11T22:48:19.689Z,84.32
2018-07-11T22:50:47.412Z,83.64
2018-07-11T22:53:15.134Z,84.64
2018-07-11T22:55:42.869Z,82.81
2018-07-11T22:58:10.591Z,84.77
2018-07-11T23:00:38.348Z,85.71
2018-07-11T23:03:06.592Z,86.03
2018-07-11T23:05:34.353Z,85.89
2018-07-11T23:08:02.093Z,83.87
2018-07-11T23:10:29.845Z,82.98
2018-07-11T23:12:57.573Z,84.01
2018-07-11T23:15:27.137Z,84.58
2018-07-11T23:17:54.864Z,82.53
2018-07-11T23:20:22.645Z,83.27
2018-07-11T23:22:50.321Z,85.06
2018-07-11T23:25:18.052Z,81.77
2018-07-11T23:27:45.781Z,82.03
2018-07-11T23:30:13.509Z,83.79
2018-07-11T23:32:41.245Z,83.30
2018-07-11T23:35:08.985Z,84.92
2018-07-11T23:37:36.833Z,83.49
2018-07-11T23:40:04.565Z,83.26
2018-07-11T23:42:32.317Z,81.24
2018-07-11T23:45:00.054Z,82.44
2018-07-11T23:47:27.772Z,82.19
2018-07-11T23:49:55.501Z,79.82
2018-07-11T23:52:23.364Z,80.95
2018-07-11T23:54:51.089Z,81.03
2018-07-11T23:57:18.810Z,81.86
2018-07-11T23:59:46.545Z,82.08
